This demonstration page uses our WeatherBlox Daily Observations layout. Learn more.

Left ArrowRight Arrow

39.92423, -83.80882

Hourly Observations for August 11, 2016

Temp ( °F °C ) Dew Point ( °F °C ) Humidity (%) Winds ( mph kmh ) Pressure ( in mb ) Visibility ( mi km ) Precip ( " mm )
12:56 am 00:56 Clear 74 23.3 72 22.2 94 94 undefined N/A 30.09 1019 10 16.0934 N/A
1:56 am 01:56 Clear 74 23.3 72 22.2 94 94 S 5 7 30.09 1019 10 16.0934 N/A
2:56 am 02:56 Mostly Clear 74 23.3 72 22.2 94 94 SSE 3 6 N/A 10 16.0934 N/A
3:56 am 03:56 Clear 74 23.3 72 22.2 94 94 S 5 7 30.09 1019 10 16.0934 N/A
4:56 am 04:56 Cloudy 74 23.3 73 22.8 97 97 S 3 6 30.08 1019 10 16.0934 N/A
5:56 am 05:56 Cloudy 74 23.3 72 22.2 94 94 undefined N/A N/A 10 16.0934 N/A
6:56 am 06:56 Cloudy 73 22.8 72 22.2 96 96 N N/A 30.09 1019 10 16.0934 N/A
7:56 am 07:56 Mostly Cloudy 75 23.9 73 22.8 94 94 undefined N/A N/A 10 16.0934 N/A
8:56 am 08:56 Mostly Cloudy 79 26.1 75 23.9 88 88 S 6 9 30.1 1019 10 16.0934 N/A
9:56 am 09:56 Sunny 83 28.3 76 24.4 79 79 S 6 9 30.09 1019 10 16.0934 N/A
10:56 am 10:56 Sunny 84 28.9 76 24.4 77 77 SSW 6 9 30.08 1019 10 16.0934 N/A
11:56 am 11:56 Partly Cloudy 85 29.4 76 24.4 75 75 SW 8 13 30.08 1019 10 16.0934 N/A
12:56 pm 12:56 Mostly Sunny 86 30 76 24.4 72 72 SSW 5 7 30.06 1018 10 16.0934 N/A
1:56 pm 13:56 Mostly Cloudy 87 30.6 76 24.4 70 70 WSW 9 15 30.04 1017 10 16.0934 N/A
2:54 pm 14:54 Partly Cloudy 88 31 77 25 70 70 SW 10 17 30 1016 10 16.0934 N/A
2:55 pm 14:55 Partly Cloudy with Nearby Thunderstorms 88 31.1 77 25 70 70 SW 9 15 N/A 10 16.0934 N/A
3:21 pm 15:21 Mostly Cloudy 82 28 73 23 74 74 SSW 8 13 30 1016 10 16.0934 N/A
3:56 pm 15:56 Mostly Cloudy 84 28.9 75 23.9 74 74 SSW 13 20 N/A 10 16.0934 N/A
4:15 pm 16:15 Mostly Cloudy with Nearby Thunderstorms 84 29 75 24 74 74 SSW 10 17 29.97 1015 10 16.0934 N/A
4:32 pm 16:32 Partly Cloudy 84 29 75 24 74 74 undefined N/A 29.97 1015 10 16.0934 N/A
4:52 pm 16:52 Mostly Cloudy with Nearby Thunderstorms 82 28 75 24 79 79 undefined N/A N/A 10 16.0934 N/A
4:56 pm 16:56 Mostly Cloudy with Nearby Thunderstorms 82 27.8 75 23.9 79 79 SSW 9 15 30 1016 10 16.0934 N/A
5:07 pm 17:07 Mostly Cloudy 82 28 73 23 74 74 S 8 13 29.97 1015 10 16.0934 N/A
5:56 pm 17:56 Sunny 84 28.9 76 24.4 77 77 SSW 9 15 29.98 1015 10 16.0934 N/A
6:56 pm 18:56 Partly Cloudy 85 29.4 76 24.4 75 75 undefined N/A N/A 10 16.0934 N/A
7:56 pm 19:56 Mostly Cloudy 82 27.8 74 23.3 77 77 SSW 9 15 29.97 1015 10 16.0934 N/A
8:56 pm 20:56 Clear 80 26.7 75 23.9 85 85 S 6 9 29.96 1015 10 16.0934 N/A
9:56 pm 21:56 Clear 79 26.1 74 23.3 85 85 S 7 11 29.97 1015 10 16.0934 N/A
10:56 pm 22:56 Clear 77 25 73 22.8 88 88 undefined N/A 29.98 1015 10 16.0934 N/A
11:56 pm 23:56 Clear 76 24.4 72 22.2 88 88 undefined N/A 29.97 1015 10 16.0934 N/A

Powered by AerisWeather